createdAt,value
2023-05-16T00:00:14.833Z,14.40
2023-05-16T00:01:18.337Z,14.40
2023-05-16T00:02:21.678Z,14.40
2023-05-16T00:03:24.457Z,14.40
2023-05-16T00:04:27.484Z,14.40
2023-05-16T00:05:30.299Z,14.40
2023-05-16T00:06:33.370Z,14.30
2023-05-16T00:07:36.528Z,14.30
2023-05-16T00:08:39.092Z,14.30
2023-05-16T00:09:41.636Z,14.30
2023-05-16T00:10:44.413Z,14.30
2023-05-16T00:11:48.330Z,14.30
2023-05-16T00:12:51.960Z,14.20
2023-05-16T00:13:54.617Z,14.20
2023-05-16T00:14:57.182Z,14.20
2023-05-16T00:16:02.693Z,14.20
2023-05-16T00:17:12.253Z,14.20
2023-05-16T00:18:16.763Z,14.10
2023-05-16T00:19:20.485Z,14.10
2023-05-16T00:20:25.058Z,14.10
2023-05-16T00:21:27.901Z,14.10
2023-05-16T00:22:30.602Z,14.10
2023-05-16T00:23:33.543Z,14.00
2023-05-16T00:24:36.291Z,14.00
2023-05-16T00:25:39.046Z,14.00
2023-05-16T00:26:41.620Z,14.00
2023-05-16T00:27:44.285Z,14.00
2023-05-16T00:28:46.885Z,14.00
2023-05-16T00:29:49.458Z,14.00
2023-05-16T00:30:53.490Z,14.00
2023-05-16T00:31:56.105Z,13.90
2023-05-16T00:32:58.796Z,13.90
2023-05-16T00:34:01.454Z,13.90
2023-05-16T00:35:04.974Z,13.90
2023-05-16T00:36:08.003Z,13.90
2023-05-16T00:37:10.975Z,13.90
2023-05-16T00:38:13.537Z,13.90
2023-05-16T00:39:16.921Z,13.90
2023-05-16T00:40:19.645Z,13.80
2023-05-16T00:41:22.517Z,13.80
2023-05-16T00:42:25.165Z,13.80
2023-05-16T00:43:27.797Z,13.80
2023-05-16T00:44:31.660Z,13.80
2023-05-16T00:45:34.304Z,13.80
2023-05-16T00:46:37.723Z,13.80
2023-05-16T00:47:40.576Z,13.80
2023-05-16T00:48:43.429Z,13.80
2023-05-16T00:49:46.055Z,13.80
2023-05-16T00:50:49.507Z,13.80
2023-05-16T00:51:52.853Z,13.80
2023-05-16T00:52:55.596Z,13.80
2023-05-16T00:53:59.359Z,13.80
2023-05-16T00:55:02.637Z,13.80
2023-05-16T00:56:06.954Z,13.70
2023-05-16T00:57:09.852Z,13.70
2023-05-16T00:58:13.292Z,13.70
2023-05-16T00:59:16.725Z,13.70
2023-05-16T01:00:20.194Z,13.70
2023-05-16T01:01:26.121Z,13.70
2023-05-16T01:02:29.438Z,13.70
2023-05-16T01:03:32.411Z,13.70
2023-05-16T01:04:36.065Z,13.70
2023-05-16T01:05:38.685Z,13.60
2023-05-16T01:06:42.093Z,13.60
2023-05-16T01:07:44.936Z,13.60
2023-05-16T01:08:47.676Z,13.60
2023-05-16T01:09:50.417Z,13.60
2023-05-16T01:11:23.657Z,13.60
2023-05-16T01:13:02.541Z,13.60
2023-05-16T01:14:54.454Z,13.50
2023-05-16T01:16:26.420Z,13.50
2023-05-16T01:17:36.910Z,13.50
2023-05-16T01:19:20.845Z,13.50
2023-05-16T01:20:33.574Z,13.50
2023-05-16T01:21:49.782Z,13.50
2023-05-16T01:23:18.540Z,13.40
2023-05-16T01:24:35.038Z,13.40
2023-05-16T01:25:46.573Z,13.40
2023-05-16T01:26:51.730Z,13.40
2023-05-16T01:27:56.422Z,13.40
2023-05-16T01:28:59.711Z,13.30
2023-05-16T01:30:15.040Z,13.30
2023-05-16T01:31:18.542Z,13.30
2023-05-16T01:32:22.825Z,13.30
2023-05-16T01:33:25.644Z,13.20
2023-05-16T01:34:28.271Z,13.20
2023-05-16T01:35:31.729Z,13.20
2023-05-16T01:37:04.949Z,13.20
2023-05-16T01:38:27.757Z,13.10
2023-05-16T01:39:42.452Z,13.10
2023-05-16T01:41:00.147Z,13.10
2023-05-16T01:42:14.294Z,13.10
2023-05-16T01:43:23.041Z,13.10
2023-05-16T01:44:59.246Z,13.10
2023-05-16T01:46:13.135Z,13.10
2023-05-16T01:47:19.764Z,13.10
2023-05-16T01:48:29.364Z,13.10
2023-05-16T01:49:43.530Z,13.00
2023-05-16T01:50:53.374Z,13.00
2023-05-16T01:52:01.971Z,13.00
2023-05-16T01:53:12.585Z,13.00
2023-05-16T01:54:19.503Z,13.00
2023-05-16T01:55:35.336Z,13.00
2023-05-16T01:56:39.407Z,13.00
2023-05-16T01:57:43.609Z,12.90
2023-05-16T01:58:48.434Z,12.90
2023-05-16T01:59:51.136Z,12.90
2023-05-16T02:00:54.527Z,12.90
2023-05-16T02:02:00.768Z,12.90
2023-05-16T02:03:03.519Z,12.90
2023-05-16T02:04:06.632Z,12.90
2023-05-16T02:05:11.446Z,12.90
2023-05-16T02:06:14.008Z,12.90
2023-05-16T02:07:16.723Z,12.90
2023-05-16T02:08:21.375Z,12.90
2023-05-16T02:09:26.156Z,12.90
2023-05-16T02:10:28.968Z,12.90
2023-05-16T02:11:31.602Z,12.80
2023-05-16T02:12:34.238Z,12.80
2023-05-16T02:13:37.345Z,12.80
2023-05-16T02:14:41.942Z,12.80
2023-05-16T02:15:44.965Z,12.80
2023-05-16T02:16:48.893Z,12.80
2023-05-16T02:17:52.894Z,12.80
2023-05-16T02:18:55.575Z,12.80
2023-05-16T02:19:58.184Z,12.80
2023-05-16T02:21:00.895Z,12.80
2023-05-16T02:22:03.493Z,12.80
2023-05-16T02:23:06.145Z,12.80
2023-05-16T02:24:08.721Z,12.90
2023-05-16T02:25:11.684Z,12.90
2023-05-16T02:26:14.379Z,12.90
2023-05-16T02:27:17.007Z,12.90
2023-05-16T02:28:19.709Z,13.00
2023-05-16T02:29:22.309Z,13.00
2023-05-16T02:30:25.505Z,13.00
2023-05-16T02:31:32.981Z,13.00
2023-05-16T02:32:35.954Z,13.10
2023-05-16T02:33:38.559Z,13.10
2023-05-16T02:34:41.643Z,13.10
2023-05-16T02:35:44.355Z,13.10
2023-05-16T02:36:46.919Z,13.10
2023-05-16T02:37:49.509Z,13.10
2023-05-16T02:38:53.343Z,13.10
2023-05-16T02:39:58.118Z,13.10
2023-05-16T02:41:00.718Z,13.10
2023-05-16T02:42:03.686Z,13.10
2023-05-16T02:43:06.427Z,13.10
2023-05-16T02:44:09.165Z,13.10
2023-05-16T02:45:12.461Z,13.10
2023-05-16T02:46:32.873Z,13.10
2023-05-16T02:47:35.715Z,13.10
2023-05-16T02:48:38.361Z,13.10
2023-05-16T02:49:41.066Z,13.10
2023-05-16T02:50:43.700Z,13.10
2023-05-16T02:51:46.845Z,13.10
2023-05-16T02:52:49.540Z,13.10
2023-05-16T02:53:53.040Z,13.10
2023-05-16T02:55:10.066Z,13.10
2023-05-16T02:56:19.256Z,13.10
2023-05-16T02:57:22.179Z,13.10
2023-05-16T02:58:24.774Z,13.10
2023-05-16T02:59:27.819Z,13.10
2023-05-16T03:00:30.834Z,13.10
2023-05-16T03:01:33.800Z,13.10
2023-05-16T03:02:36.630Z,13.10
2023-05-16T03:03:39.326Z,13.00
2023-05-16T03:04:42.099Z,13.00
2023-05-16T03:05:44.687Z,13.00
2023-05-16T03:06:47.253Z,13.00
2023-05-16T03:07:49.809Z,13.00
2023-05-16T03:08:52.412Z,12.90
2023-05-16T03:09:55.062Z,12.90
2023-05-16T03:10:57.750Z,12.90
2023-05-16T03:12:00.508Z,12.90
2023-05-16T03:13:03.164Z,12.90
2023-05-16T03:14:05.826Z,13.00
2023-05-16T03:15:09.395Z,12.90
2023-05-16T03:16:12.491Z,12.90
2023-05-16T03:17:15.085Z,12.90
2023-05-16T03:18:17.677Z,12.90
2023-05-16T03:19:20.286Z,12.90
2023-05-16T03:20:22.909Z,12.90
2023-05-16T03:21:26.089Z,12.90
2023-05-16T03:22:28.660Z,12.90
2023-05-16T03:23:31.224Z,12.90
2023-05-16T03:24:33.944Z,12.90
2023-05-16T03:25:37.601Z,12.90
2023-05-16T03:26:40.294Z,12.90
2023-05-16T03:27:42.893Z,12.90
2023-05-16T03:28:45.577Z,12.90
2023-05-16T03:29:48.311Z,12.90
2023-05-16T03:30:50.929Z,12.90
2023-05-16T03:31:53.578Z,12.80
2023-05-16T03:32:56.499Z,12.80
2023-05-16T03:33:59.443Z,12.80
2023-05-16T03:35:02.058Z,12.70
2023-05-16T03:36:05.472Z,12.70
2023-05-16T03:37:08.388Z,12.70
2023-05-16T03:38:11.075Z,12.70
2023-05-16T03:39:13.683Z,12.70
2023-05-16T03:40:16.339Z,12.60
2023-05-16T03:41:18.955Z,12.60
2023-05-16T03:42:21.623Z,12.60
2023-05-16T03:43:24.214Z,12.50
2023-05-16T03:44:26.769Z,12.50
2023-05-16T03:45:31.205Z,12.50
2023-05-16T03:46:34.020Z,12.40
2023-05-16T03:47:37.174Z,12.40
2023-05-16T03:48:39.849Z,12.40
2023-05-16T03:49:42.695Z,12.40
2023-05-16T03:50:45.744Z,12.40
2023-05-16T03:51:48.389Z,12.40
2023-05-16T03:52:52.793Z,12.40
2023-05-16T03:53:55.409Z,12.40
2023-05-16T03:54:57.976Z,12.40
2023-05-16T03:56:00.690Z,12.40
2023-05-16T03:57:03.552Z,12.40
2023-05-16T03:58:06.356Z,12.40
2023-05-16T03:59:08.910Z,12.40
2023-05-16T04:00:12.762Z,12.30
2023-05-16T04:01:15.648Z,12.30
2023-05-16T04:02:19.063Z,12.30
2023-05-16T04:03:28.521Z,12.30
2023-05-16T04:04:31.357Z,12.30
2023-05-16T04:05:34.982Z,12.30
2023-05-16T04:06:37.612Z,12.30
2023-05-16T04:07:41.071Z,12.40
2023-05-16T04:08:45.086Z,12.40
2023-05-16T04:09:47.689Z,12.40
2023-05-16T04:10:50.251Z,12.40
2023-05-16T04:11:52.858Z,12.40
2023-05-16T04:12:55.487Z,12.40
2023-05-16T04:13:58.916Z,12.40
2023-05-16T04:15:03.107Z,12.40
2023-05-16T04:16:06.495Z,12.30
2023-05-16T04:17:09.543Z,12.30
2023-05-16T04:18:13.566Z,12.30
2023-05-16T04:19:16.507Z,12.30
2023-05-16T04:20:19.413Z,12.30
2023-05-16T04:21:22.656Z,12.30
2023-05-16T04:22:25.307Z,12.30
2023-05-16T04:23:27.895Z,12.30
2023-05-16T04:24:30.541Z,12.30
2023-05-16T04:25:33.358Z,12.30
2023-05-16T04:26:37.465Z,12.30
2023-05-16T04:27:40.027Z,12.40
2023-05-16T04:28:42.677Z,12.40
2023-05-16T04:29:45.303Z,12.40
2023-05-16T04:30:48.699Z,12.40
2023-05-16T04:31:51.408Z,12.40
2023-05-16T04:32:54.156Z,12.40
2023-05-16T04:33:58.046Z,12.50
2023-05-16T04:35:01.369Z,12.50
2023-05-16T04:36:05.968Z,12.40
2023-05-16T04:37:09.604Z,12.40
2023-05-16T04:38:12.568Z,12.40
2023-05-16T04:39:15.167Z,12.40
2023-05-16T04:40:17.916Z,12.40
2023-05-16T04:41:20.461Z,12.40
2023-05-16T04:42:24.300Z,12.40
2023-05-16T04:43:26.974Z,12.30
2023-05-16T04:44:29.581Z,12.30
2023-05-16T04:45:32.201Z,12.20
2023-05-16T04:46:34.857Z,12.20
2023-05-16T04:47:38.068Z,12.20
2023-05-16T04:48:40.726Z,12.20
2023-05-16T04:49:43.389Z,12.20
2023-05-16T04:50:46.302Z,12.10
2023-05-16T04:51:49.432Z,12.10
2023-05-16T04:52:52.555Z,12.10
2023-05-16T04:53:56.076Z,12.10
2023-05-16T04:55:00.687Z,12.20
2023-05-16T04:56:05.074Z,12.20
2023-05-16T04:57:07.800Z,12.20
2023-05-16T04:58:10.414Z,12.20
2023-05-16T04:59:13.062Z,12.20
2023-05-16T05:00:16.441Z,12.20
2023-05-16T05:01:19.096Z,12.30
2023-05-16T05:02:21.926Z,12.30
2023-05-16T05:03:24.576Z,12.40
2023-05-16T05:04:27.205Z,12.40
2023-05-16T05:05:30.138Z,12.40
2023-05-16T05:06:33.056Z,12.40
2023-05-16T05:07:36.050Z,12.40
2023-05-16T05:08:38.629Z,12.40
2023-05-16T05:09:42.935Z,12.40
2023-05-16T05:10:45.552Z,12.40
2023-05-16T05:11:48.112Z,12.40
2023-05-16T05:12:50.828Z,12.40
2023-05-16T05:13:53.546Z,12.40
2023-05-16T05:14:56.116Z,12.40
2023-05-16T05:15:58.853Z,12.40
2023-05-16T05:17:01.754Z,12.50
2023-05-16T05:18:04.689Z,12.50
2023-05-16T05:19:08.962Z,12.50
2023-05-16T05:20:12.692Z,12.50
2023-05-16T05:21:15.618Z,12.50
2023-05-16T05:22:18.200Z,12.60
2023-05-16T05:23:20.900Z,12.60
2023-05-16T05:24:23.541Z,12.60
2023-05-16T05:25:26.957Z,12.70
2023-05-16T05:26:29.959Z,12.70
2023-05-16T05:27:32.524Z,12.80
2023-05-16T05:28:35.133Z,12.80
2023-05-16T05:29:37.790Z,12.80
2023-05-16T05:30:42.294Z,12.90
2023-05-16T05:31:45.900Z,12.80
2023-05-16T05:32:48.616Z,12.90
2023-05-16T05:33:51.213Z,12.80
2023-05-16T05:34:53.796Z,12.80
2023-05-16T05:35:57.578Z,12.80
2023-05-16T05:37:00.260Z,12.80
2023-05-16T05:38:02.826Z,12.80
2023-05-16T05:39:05.408Z,12.80
2023-05-16T05:40:09.249Z,12.80
2023-05-16T05:41:11.999Z,12.70
2023-05-16T05:42:14.580Z,12.70
2023-05-16T05:43:17.277Z,12.70
2023-05-16T05:44:19.881Z,12.70
2023-05-16T05:45:22.696Z,12.70
2023-05-16T05:46:26.089Z,12.70
2023-05-16T05:47:28.805Z,12.70
2023-05-16T05:48:32.526Z,12.70
2023-05-16T05:49:35.989Z,12.70
2023-05-16T05:50:38.907Z,12.70
2023-05-16T05:51:41.549Z,12.70
2023-05-16T05:52:44.253Z,12.70
2023-05-16T05:53:47.165Z,12.90
2023-05-16T05:54:49.816Z,12.80
2023-05-16T05:55:52.415Z,12.90
2023-05-16T05:56:54.985Z,12.90
2023-05-16T05:57:57.859Z,12.90
2023-05-16T05:59:01.158Z,12.90
2023-05-16T06:00:05.153Z,13.00
2023-05-16T06:01:12.144Z,13.00
2023-05-16T06:02:15.631Z,13.00
2023-05-16T06:03:18.813Z,13.00
2023-05-16T06:04:22.012Z,13.00
2023-05-16T06:05:25.007Z,13.10
2023-05-16T06:06:27.763Z,13.10
2023-05-16T06:07:30.536Z,13.10
2023-05-16T06:08:33.297Z,13.20
2023-05-16T06:09:35.928Z,13.10
2023-05-16T06:10:38.608Z,13.20
2023-05-16T06:11:42.229Z,13.20
2023-05-16T06:12:44.827Z,13.20
2023-05-16T06:13:48.300Z,13.30
2023-05-16T06:14:50.898Z,13.30
2023-05-16T06:15:54.357Z,13.30
2023-05-16T06:16:56.980Z,13.40
2023-05-16T06:17:59.722Z,13.40
2023-05-16T06:19:02.705Z,13.40
2023-05-16T06:20:06.516Z,13.40
2023-05-16T06:21:09.192Z,13.50
2023-05-16T06:22:12.154Z,13.40
2023-05-16T06:23:14.767Z,13.40
2023-05-16T06:24:17.352Z,13.40
2023-05-16T06:25:20.018Z,13.40
2023-05-16T06:26:22.915Z,13.40
2023-05-16T06:27:25.945Z,13.40
2023-05-16T06:28:28.516Z,13.40
2023-05-16T06:29:31.201Z,13.40
2023-05-16T06:30:33.779Z,13.50
2023-05-16T06:31:36.785Z,13.50
2023-05-16T06:32:41.551Z,13.50
2023-05-16T06:33:44.247Z,13.50
2023-05-16T06:34:46.887Z,13.60
2023-05-16T06:35:49.900Z,13.60
2023-05-16T06:36:52.459Z,13.60
2023-05-16T06:37:55.090Z,13.60
2023-05-16T06:38:57.639Z,13.60
2023-05-16T06:40:00.248Z,13.60
2023-05-16T06:41:03.494Z,13.60
2023-05-16T06:42:06.751Z,13.60
2023-05-16T06:43:09.405Z,13.60
2023-05-16T06:44:12.162Z,13.60
2023-05-16T06:45:14.769Z,13.60
2023-05-16T06:46:17.485Z,13.60
2023-05-16T06:47:20.760Z,13.60
2023-05-16T06:48:23.465Z,13.60
2023-05-16T06:49:26.200Z,13.60
2023-05-16T06:50:28.785Z,13.70
2023-05-16T06:51:31.820Z,13.60
2023-05-16T06:52:34.623Z,13.70
2023-05-16T06:53:37.276Z,13.70
2023-05-16T06:54:40.102Z,13.70
2023-05-16T06:55:42.788Z,13.70
2023-05-16T06:56:45.874Z,13.70
2023-05-16T06:57:48.520Z,13.70
2023-05-16T06:58:51.404Z,13.70
2023-05-16T06:59:54.022Z,13.70
2023-05-16T07:00:56.631Z,13.70
2023-05-16T07:01:59.310Z,13.70
2023-05-16T07:03:04.145Z,13.70
2023-05-16T07:04:07.367Z,13.80
2023-05-16T07:05:10.415Z,13.80
2023-05-16T07:06:13.166Z,13.80
2023-05-16T07:07:16.165Z,13.80
2023-05-16T07:08:18.949Z,13.80
2023-05-16T07:09:21.986Z,13.80
2023-05-16T07:10:24.701Z,13.80
2023-05-16T07:11:27.422Z,13.80
2023-05-16T07:12:30.069Z,13.80
2023-05-16T07:13:35.104Z,13.80
2023-05-16T07:14:38.505Z,13.80
2023-05-16T07:15:41.246Z,13.80
2023-05-16T07:16:44.295Z,13.80
2023-05-16T07:17:47.103Z,13.90
2023-05-16T07:18:49.998Z,13.90
2023-05-16T07:19:52.621Z,13.90
2023-05-16T07:20:55.212Z,13.90
2023-05-16T07:21:57.870Z,13.90
2023-05-16T07:23:00.876Z,13.90
2023-05-16T07:24:03.714Z,13.90
2023-05-16T07:25:12.532Z,13.90
2023-05-16T07:26:15.237Z,13.90
2023-05-16T07:27:17.823Z,13.90
2023-05-16T07:28:20.575Z,13.90
2023-05-16T07:29:23.144Z,14.00
2023-05-16T07:30:25.916Z,14.00
2023-05-16T07:31:28.736Z,14.00
2023-05-16T07:32:31.430Z,14.10
2023-05-16T07:33:34.580Z,14.10
2023-05-16T07:34:37.166Z,14.10
2023-05-16T07:35:39.911Z,14.20
2023-05-16T07:36:42.603Z,14.30
2023-05-16T07:37:45.249Z,14.40
2023-05-16T07:38:47.910Z,14.40
2023-05-16T07:39:50.544Z,14.50
2023-05-16T07:40:53.247Z,14.50
2023-05-16T07:41:56.926Z,14.60
2023-05-16T07:42:59.672Z,14.60
2023-05-16T07:44:02.574Z,14.60
2023-05-16T07:45:07.647Z,14.70
2023-05-16T07:46:13.851Z,14.70
2023-05-16T07:47:16.602Z,14.70
2023-05-16T07:48:19.248Z,14.70
2023-05-16T07:49:22.167Z,14.70
2023-05-16T07:50:24.823Z,14.80
2023-05-16T07:51:27.432Z,14.70
2023-05-16T07:52:30.148Z,14.70
2023-05-16T07:53:32.938Z,14.70
2023-05-16T07:54:36.433Z,14.60
2023-05-16T07:55:39.113Z,14.60
2023-05-16T07:56:42.004Z,14.60
2023-05-16T07:57:44.924Z,14.60
2023-05-16T07:58:49.835Z,14.60
2023-05-16T07:59:52.913Z,14.50
2023-05-16T08:00:55.993Z,14.60
2023-05-16T08:01:58.685Z,14.60
2023-05-16T08:03:02.278Z,14.50
2023-05-16T08:04:05.674Z,14.50
2023-05-16T08:05:09.615Z,14.50
2023-05-16T08:06:12.608Z,14.50
2023-05-16T08:07:15.696Z,14.50
2023-05-16T08:08:18.573Z,14.50
2023-05-16T08:09:21.530Z,14.50
2023-05-16T08:10:24.232Z,14.50
2023-05-16T08:11:27.127Z,14.50
2023-05-16T08:12:31.113Z,14.50
2023-05-16T08:13:34.079Z,14.40
2023-05-16T08:14:37.164Z,14.40
2023-05-16T08:15:39.995Z,14.40
2023-05-16T08:16:43.066Z,14.40
2023-05-16T08:17:45.886Z,14.40
2023-05-16T08:18:48.592Z,14.30
2023-05-16T08:19:51.246Z,14.30
2023-05-16T08:20:54.104Z,14.30
2023-05-16T08:21:57.781Z,14.30
2023-05-16T08:23:00.482Z,14.30
2023-05-16T08:24:05.563Z,14.30
2023-05-16T08:25:09.256Z,14.30
2023-05-16T08:26:11.980Z,14.30
2023-05-16T08:27:14.829Z,14.30
2023-05-16T08:28:17.433Z,14.30
2023-05-16T08:29:20.065Z,14.30
2023-05-16T08:30:22.738Z,14.30
2023-05-16T08:31:25.526Z,14.30
2023-05-16T08:32:28.223Z,14.30
2023-05-16T08:33:31.025Z,14.30
2023-05-16T08:34:33.988Z,14.30
2023-05-16T08:35:36.665Z,14.40
2023-05-16T08:36:39.447Z,14.40
2023-05-16T08:37:42.083Z,14.40
2023-05-16T08:38:44.746Z,14.40
2023-05-16T08:39:47.473Z,14.40
2023-05-16T08:40:50.171Z,14.40
2023-05-16T08:41:52.817Z,14.40
2023-05-16T08:42:56.071Z,14.40
2023-05-16T08:43:59.117Z,14.50
2023-05-16T08:45:01.880Z,14.50
2023-05-16T08:46:04.509Z,14.50
2023-05-16T08:47:23.280Z,14.60
2023-05-16T08:48:28.645Z,14.60
2023-05-16T08:49:32.004Z,14.70
2023-05-16T08:50:36.681Z,14.70
2023-05-16T08:51:40.339Z,14.80
2023-05-16T08:52:44.538Z,14.80
2023-05-16T08:53:58.919Z,14.80
2023-05-16T08:55:11.035Z,14.80
2023-05-16T08:56:17.301Z,14.80
2023-05-16T08:57:21.073Z,14.80
2023-05-16T08:58:23.857Z,14.80
2023-05-16T08:59:26.768Z,14.80
2023-05-16T09:00:29.837Z,14.80
2023-05-16T09:01:32.626Z,14.80
2023-05-16T09:02:35.861Z,14.80
2023-05-16T09:03:39.485Z,14.90
2023-05-16T09:04:43.386Z,14.90
2023-05-16T09:05:47.316Z,14.90
2023-05-16T09:06:51.001Z,14.90
2023-05-16T09:07:53.598Z,14.90
2023-05-16T09:08:56.462Z,14.90
2023-05-16T09:09:59.418Z,14.90
2023-05-16T09:11:03.844Z,14.90
2023-05-16T09:12:06.824Z,14.90
2023-05-16T09:13:09.580Z,14.90
2023-05-16T09:14:12.408Z,14.90
2023-05-16T09:15:15.133Z,14.90
2023-05-16T09:16:20.005Z,14.90
2023-05-16T09:17:35.930Z,14.80
2023-05-16T09:18:59.172Z,14.80
2023-05-16T09:20:13.441Z,14.80
2023-05-16T09:21:16.845Z,14.70
2023-05-16T09:22:19.592Z,14.70
2023-05-16T09:23:25.566Z,14.70
2023-05-16T09:24:28.726Z,14.60
2023-05-16T09:25:32.244Z,14.60
2023-05-16T09:26:38.164Z,14.60
2023-05-16T09:27:41.481Z,14.60
2023-05-16T09:28:44.606Z,14.50
2023-05-16T09:29:51.127Z,14.50
2023-05-16T09:30:57.476Z,14.50
2023-05-16T09:32:12.682Z,14.50
2023-05-16T09:33:15.711Z,14.50
2023-05-16T09:34:22.925Z,14.50
2023-05-16T09:35:43.100Z,14.50
2023-05-16T09:36:47.256Z,14.50
2023-05-16T09:37:53.469Z,14.50
2023-05-16T09:38:56.342Z,14.60
2023-05-16T09:39:58.930Z,14.60
2023-05-16T09:41:03.095Z,14.60
2023-05-16T09:42:06.278Z,14.70
2023-05-16T09:43:08.884Z,14.80
2023-05-16T09:44:11.525Z,14.80
2023-05-16T09:45:14.769Z,14.90
2023-05-16T09:46:17.773Z,14.90
2023-05-16T09:47:22.144Z,14.90
2023-05-16T09:48:28.521Z,14.90
2023-05-16T09:49:31.376Z,14.90
2023-05-16T09:50:36.458Z,14.90
2023-05-16T09:51:41.475Z,14.90
2023-05-16T09:52:44.599Z,15.00
2023-05-16T09:53:47.556Z,15.00
2023-05-16T09:54:50.231Z,15.10
2023-05-16T09:56:08.377Z,15.10
2023-05-16T09:57:10.999Z,15.10
2023-05-16T09:58:18.484Z,15.20
2023-05-16T09:59:22.401Z,15.20
2023-05-16T10:00:33.910Z,15.30
2023-05-16T10:01:36.577Z,15.40
2023-05-16T10:02:39.932Z,15.50
2023-05-16T10:03:43.835Z,15.70
2023-05-16T10:04:46.683Z,15.90
2023-05-16T10:05:50.062Z,16.00
2023-05-16T10:07:00.898Z,16.00
2023-05-16T10:08:04.716Z,16.10
2023-05-16T10:09:11.507Z,16.20
2023-05-16T10:10:14.550Z,16.30
2023-05-16T10:11:18.612Z,16.40
2023-05-16T10:12:33.949Z,16.50
2023-05-16T10:13:37.822Z,16.60
2023-05-16T10:14:42.412Z,16.50
2023-05-16T10:15:46.703Z,16.50
2023-05-16T10:16:50.809Z,16.40
2023-05-16T10:17:57.168Z,16.30
2023-05-16T10:19:02.269Z,16.30
2023-05-16T10:20:08.033Z,16.20
2023-05-16T10:21:15.780Z,16.10
2023-05-16T10:22:20.244Z,16.10
2023-05-16T10:23:26.485Z,16.10
2023-05-16T10:24:46.638Z,16.10
2023-05-16T10:25:50.149Z,16.10
2023-05-16T10:26:53.720Z,16.20
2023-05-16T10:27:56.947Z,16.20
2023-05-16T10:29:02.814Z,16.20
2023-05-16T10:30:07.214Z,16.20
2023-05-16T10:31:11.496Z,16.30
2023-05-16T10:32:15.064Z,16.30
2023-05-16T10:33:19.814Z,16.30
2023-05-16T10:34:23.246Z,16.30
2023-05-16T10:35:27.576Z,16.30
2023-05-16T10:36:31.404Z,16.30
2023-05-16T10:37:34.848Z,16.30
2023-05-16T10:38:39.428Z,16.30
2023-05-16T10:39:43.557Z,16.30
2023-05-16T10:40:48.594Z,16.40
2023-05-16T10:41:51.393Z,16.50
2023-05-16T10:42:59.838Z,16.60
2023-05-16T10:44:02.918Z,16.70
2023-05-16T10:45:22.001Z,16.90
2023-05-16T10:46:27.368Z,17.00
2023-05-16T10:47:30.081Z,17.00
2023-05-16T10:48:38.869Z,17.10
2023-05-16T10:49:41.938Z,17.00
2023-05-16T10:50:46.287Z,17.00
2023-05-16T10:52:07.782Z,16.90
2023-05-16T10:53:24.586Z,16.80
2023-05-16T10:54:36.670Z,16.80
2023-05-16T10:55:40.370Z,16.80
2023-05-16T10:56:43.541Z,16.80
2023-05-16T10:57:47.809Z,16.80
2023-05-16T10:58:50.547Z,16.80
2023-05-16T10:59:53.938Z,16.80
2023-05-16T11:01:25.095Z,16.80
2023-05-16T11:02:29.927Z,16.70
2023-05-16T11:03:32.665Z,16.60
2023-05-16T11:04:50.351Z,16.50
2023-05-16T11:05:54.298Z,16.50
2023-05-16T11:06:59.008Z,16.50
2023-05-16T11:08:06.768Z,16.50
2023-05-16T11:09:13.361Z,16.50
2023-05-16T11:10:17.211Z,16.50
2023-05-16T11:11:53.277Z,16.50
2023-05-16T11:13:04.535Z,16.50
2023-05-16T11:14:07.889Z,16.40
2023-05-16T11:15:29.097Z,16.30
2023-05-16T11:16:34.443Z,16.20
2023-05-16T11:17:42.847Z,16.20
2023-05-16T11:18:52.880Z,16.20
2023-05-16T11:19:59.779Z,16.20
2023-05-16T11:21:04.892Z,16.20
2023-05-16T11:22:17.042Z,16.30
2023-05-16T11:23:25.596Z,16.30
2023-05-16T11:24:30.741Z,16.40
2023-05-16T11:25:41.379Z,16.40
2023-05-16T11:26:44.149Z,16.40
2023-05-16T11:27:48.210Z,16.40
2023-05-16T11:28:51.255Z,16.40
2023-05-16T11:30:02.039Z,16.30
2023-05-16T11:31:06.175Z,16.30
2023-05-16T11:32:08.862Z,16.20
2023-05-16T11:33:13.452Z,16.20
2023-05-16T11:34:16.701Z,16.10
2023-05-16T11:35:19.764Z,16.10
2023-05-16T11:36:30.771Z,16.00
2023-05-16T11:37:33.446Z,16.00
2023-05-16T11:38:37.113Z,16.10
2023-05-16T11:39:39.933Z,16.10
2023-05-16T11:40:44.619Z,16.10
2023-05-16T11:41:48.826Z,16.20
2023-05-16T11:42:52.078Z,16.20
2023-05-16T11:43:54.699Z,16.30
2023-05-16T11:45:17.205Z,16.30
2023-05-16T11:46:20.219Z,16.40
2023-05-16T11:47:22.884Z,16.50
2023-05-16T11:48:35.588Z,16.50
2023-05-16T11:49:39.015Z,16.60
2023-05-16T11:50:41.701Z,16.70
2023-05-16T11:51:44.580Z,16.70
2023-05-16T11:52:53.565Z,16.80
2023-05-16T11:53:57.788Z,16.90
2023-05-16T11:55:01.575Z,17.10
2023-05-16T11:56:07.209Z,17.30
2023-05-16T11:57:10.301Z,17.40
2023-05-16T11:58:13.114Z,17.50
2023-05-16T11:59:15.806Z,17.60
2023-05-16T12:00:21.777Z,17.60
2023-05-16T12:01:24.374Z,17.60
2023-05-16T12:02:30.130Z,17.60
2023-05-16T12:03:33.772Z,17.50
2023-05-16T12:04:39.581Z,17.50
2023-05-16T12:05:56.883Z,17.50
2023-05-16T12:07:01.961Z,17.50
2023-05-16T12:08:05.160Z,17.50
2023-05-16T12:09:12.522Z,17.50
2023-05-16T12:10:17.191Z,17.60
2023-05-16T12:11:21.808Z,17.80
2023-05-16T12:12:24.441Z,17.90
2023-05-16T12:13:27.323Z,18.00
2023-05-16T12:14:29.934Z,18.10
2023-05-16T12:15:33.326Z,18.20
2023-05-16T12:16:37.973Z,18.20
2023-05-16T12:17:41.992Z,18.30
2023-05-16T12:18:45.547Z,18.40
2023-05-16T12:19:48.759Z,18.60
2023-05-16T12:20:52.442Z,18.70
2023-05-16T12:21:55.666Z,18.80
2023-05-16T12:22:59.122Z,18.90
2023-05-16T12:24:02.182Z,19.00
2023-05-16T12:25:30.274Z,19.10
2023-05-16T12:26:33.906Z,19.10
2023-05-16T12:27:37.267Z,19.10
2023-05-16T12:28:41.134Z,19.10
2023-05-16T12:29:48.940Z,19.00
2023-05-16T12:30:51.953Z,19.00
2023-05-16T12:31:54.763Z,18.80
2023-05-16T12:33:13.127Z,18.70
2023-05-16T12:34:18.165Z,18.60
2023-05-16T12:35:21.157Z,18.50
2023-05-16T12:36:26.331Z,18.40
2023-05-16T12:37:29.258Z,18.30
2023-05-16T12:38:32.082Z,18.10
2023-05-16T12:39:39.004Z,18.00
2023-05-16T12:40:43.573Z,18.00
2023-05-16T12:41:46.352Z,18.00
2023-05-16T12:42:54.852Z,18.00
2023-05-16T12:44:17.771Z,18.00
2023-05-16T12:45:20.398Z,18.00
2023-05-16T12:46:25.596Z,18.00
2023-05-16T12:47:47.391Z,18.10
2023-05-16T12:49:02.918Z,18.20
2023-05-16T12:50:19.363Z,18.30
2023-05-16T12:51:22.028Z,18.30
2023-05-16T12:52:24.720Z,18.50
2023-05-16T12:53:28.999Z,18.60
2023-05-16T12:54:32.013Z,18.70
2023-05-16T12:55:34.603Z,18.70
2023-05-16T12:56:38.835Z,18.70
2023-05-16T12:57:45.696Z,18.70
2023-05-16T12:58:52.562Z,18.60
2023-05-16T12:59:55.175Z,18.60
2023-05-16T13:00:58.320Z,18.50
2023-05-16T13:02:01.057Z,18.40
2023-05-16T13:03:08.023Z,18.40
2023-05-16T13:04:16.041Z,18.30
2023-05-16T13:05:19.128Z,18.30
2023-05-16T13:06:21.888Z,18.30
2023-05-16T13:07:24.681Z,18.30
2023-05-16T13:08:28.990Z,18.30
2023-05-16T13:09:33.083Z,18.30
2023-05-16T13:10:36.219Z,18.30
2023-05-16T13:11:38.860Z,18.30
2023-05-16T13:12:42.079Z,18.30
2023-05-16T13:13:45.089Z,18.40
2023-05-16T13:14:47.841Z,18.40
2023-05-16T13:15:50.770Z,18.40
2023-05-16T13:16:53.440Z,18.40
2023-05-16T13:17:56.262Z,18.40
2023-05-16T13:18:59.508Z,18.50
2023-05-16T13:20:03.653Z,18.50
2023-05-16T13:21:06.666Z,18.50
2023-05-16T13:22:09.268Z,18.40
2023-05-16T13:23:11.881Z,18.40
2023-05-16T13:24:14.539Z,18.40
2023-05-16T13:25:17.264Z,18.40
2023-05-16T13:26:19.928Z,18.40
2023-05-16T13:27:22.672Z,18.40
2023-05-16T13:28:25.668Z,18.40
2023-05-16T13:29:28.980Z,18.50
2023-05-16T13:30:32.331Z,18.50
2023-05-16T13:31:34.969Z,18.60
2023-05-16T13:32:38.185Z,18.60
2023-05-16T13:33:40.915Z,18.60
2023-05-16T13:34:43.511Z,18.70
2023-05-16T13:35:46.163Z,18.70
2023-05-16T13:36:54.550Z,18.80
2023-05-16T13:37:57.870Z,18.80
2023-05-16T13:39:00.593Z,18.80
2023-05-16T13:40:04.587Z,18.80
2023-05-16T13:41:07.486Z,18.80
2023-05-16T13:42:10.211Z,18.80
2023-05-16T13:43:15.630Z,18.70
2023-05-16T13:44:18.823Z,18.60
2023-05-16T13:45:21.625Z,18.60
2023-05-16T13:46:24.941Z,18.60
2023-05-16T13:47:28.001Z,18.60
2023-05-16T13:48:30.761Z,18.60
2023-05-16T13:49:33.349Z,18.70
2023-05-16T13:50:36.276Z,18.70
2023-05-16T13:51:39.404Z,18.70
2023-05-16T13:52:42.143Z,18.80